Time;durP1;ratioP1;P1;durP2;ratioP2;P2;SDS_P1;SDS_P2;PMS_P1;PMS_P2;Temp;Humidity;BMP_temperature;BMP_pressure;BME280_temperature;BME280_humidity;BME280_pressure;Samples;Min_cycle;Max_cycle;Signal;HPM_P1;HPM_P2
2022/03/14 00:02:18;;;;;;;11.43;9.00;;;;;;;10.94;58.58;96911.66;5046407;28;20222;-54
2022/03/14 00:04:45;;;;;;;10.87;9.40;;;;;;;10.93;59.24;96912.63;5051898;28;20242;-54
2022/03/14 00:07:13;;;;;;;10.73;9.27;;;;;;;10.96;59.73;96921.13;5047315;28;20268;-54
2022/03/14 00:09:39;;;;;;;13.57;8.63;;;;;;;10.86;60.28;96928.22;5042959;28;20207;-53
2022/03/14 00:12:07;;;;;;;9.20;8.03;;;;;;;10.84;60.77;96919.56;5043735;28;20207;-54
2022/03/14 00:14:33;;;;;;;10.30;8.60;;;;;;;10.82;61.73;96929.47;5043796;28;20207;-55
2022/03/14 00:17:06;;;;;;;9.00;8.10;;;;;;;10.76;61.98;96955.66;5043643;28;20216;-54
2022/03/14 00:19:33;;;;;;;8.03;7.23;;;;;;;10.79;61.37;96963.31;5044131;28;20209;-55
2022/03/14 00:22:00;;;;;;;8.17;7.37;;;;;;;10.82;61.19;96965.69;5043675;28;20535;-53
2022/03/14 00:24:28;;;;;;;8.03;6.97;;;;;;;10.76;61.45;96969.72;5043419;28;20210;-53
2022/03/14 00:26:54;;;;;;;8.93;6.90;;;;;;;10.80;61.45;96994.94;5044301;28;20691;-55
2022/03/14 00:29:21;;;;;;;8.13;6.40;;;;;;;10.74;61.20;96999.91;5044140;28;20207;-54
2022/03/14 00:31:48;;;;;;;6.20;5.60;;;;;;;10.73;61.03;97008.81;5043262;28;20191;-54
2022/03/14 00:34:15;;;;;;;5.90;5.40;;;;;;;10.68;61.39;97013.66;5043315;28;20848;-54
2022/03/14 00:36:42;;;;;;;5.47;5.03;;;;;;;10.72;60.85;97015.91;5043361;28;20848;-53
2022/03/14 00:39:09;;;;;;;5.53;4.83;;;;;;;10.73;60.83;97028.19;5042871;28;20330;-54
2022/03/14 00:41:37;;;;;;;5.73;5.03;;;;;;;10.72;61.25;97028.31;5044343;28;20218;-54
2022/03/14 00:44:04;;;;;;;6.03;5.07;;;;;;;10.65;61.39;97038.59;5049818;28;20187;-54
2022/03/14 00:46:32;;;;;;;5.70;5.20;;;;;;;10.64;61.45;97044.84;5071391;28;20242;-52
2022/03/14 00:48:58;;;;;;;5.67;4.83;;;;;;;10.70;61.49;97043.50;5072401;28;20197;-54
2022/03/14 00:51:25;;;;;;;5.43;4.97;;;;;;;10.65;61.93;97059.75;5059449;28;20611;-54
2022/03/14 00:53:53;;;;;;;5.23;4.60;;;;;;;10.61;61.99;97063.63;5043428;28;20211;-54
2022/03/14 00:56:21;;;;;;;4.20;3.33;;;;;;;10.70;60.75;97072.59;5042948;28;20624;-54
2022/03/14 00:58:48;;;;;;;3.50;3.13;;;;;;;10.75;60.49;97071.19;5042826;28;20225;-54
2022/03/14 01:01:16;;;;;;;3.40;3.20;;;;;;;10.74;60.46;97074.81;5043063;28;20242;-54
2022/03/14 01:03:42;;;;;;;4.07;2.90;;;;;;;10.74;60.54;97085.38;5041925;28;20218;-54
2022/03/14 01:06:11;;;;;;;1.90;1.80;;;;;;;10.73;60.17;97096.97;5042851;28;20550;-54
2022/03/14 01:08:38;;;;;;;1.83;1.73;;;;;;;10.85;59.48;97092.38;5042989;28;21478;-54
2022/03/14 01:11:04;;;;;;;1.30;1.30;;;;;;;10.85;59.37;97102.97;5042923;28;20204;-54
2022/03/14 01:13:31;;;;;;;5.80;1.80;;;;;;;10.78;60.07;97110.59;5041624;28;20211;-53
2022/03/14 01:16:00;;;;;;;1.17;1.07;;;;;;;10.74;60.97;97106.56;5043371;28;20192;-54
2022/03/14 01:18:27;;;;;;;1.00;0.90;;;;;;;10.55;61.83;97119.69;5043432;28;20215;-54
2022/03/14 01:20:53;;;;;;;0.77;0.77;;;;;;;10.54;62.78;97119.81;5042782;28;20839;-54
2022/03/14 01:23:21;;;;;;;0.80;0.80;;;;;;;10.37;63.74;97122.09;5043055;28;20199;-54
2022/03/14 01:25:47;;;;;;;1.40;0.83;;;;;;;10.36;64.44;97143.38;5042629;28;20219;-54
2022/03/14 01:28:16;;;;;;;0.83;0.83;;;;;;;10.15;65.69;97140.72;5042503;28;20222;-54
2022/03/14 01:30:44;;;;;;;1.57;1.07;;;;;;;9.99;67.22;97141.13;5052802;28;20277;-54
2022/03/14 01:33:12;;;;;;;0.80;0.70;;;;;;;9.83;68.68;97138.09;5057073;28;20238;-54
2022/03/14 01:35:39;;;;;;;0.47;0.47;;;;;;;9.72;68.71;97143.41;5050790;28;20568;-52
2022/03/14 01:38:08;;;;;;;0.50;0.50;;;;;;;9.67;68.46;97150.84;5042676;28;20296;-54
2022/03/14 01:40:35;;;;;;;0.73;0.50;;;;;;;9.54;69.02;97155.47;5042979;28;20203;-54
2022/03/14 01:43:01;;;;;;;0.67;0.50;;;;;;;9.36;68.89;97146.38;5042599;28;20290;-54
2022/03/14 01:45:28;;;;;;;0.63;0.40;;;;;;;9.44;69.49;97154.53;5042484;28;20227;-53
2022/03/14 01:47:55;;;;;;;0.40;0.40;;;;;;;9.36;69.55;97162.22;5043025;28;20210;-54
2022/03/14 01:50:23;;;;;;;0.50;0.30;;;;;;;9.27;69.95;97165.59;5046870;28;20203;-54
2022/03/14 01:52:50;;;;;;;1.23;0.30;;;;;;;9.22;70.32;97165.13;5049722;28;20203;-53
2022/03/14 01:55:20;;;;;;;0.23;0.23;;;;;;;9.02;71.67;97169.34;5050771;28;20643;-55
2022/03/14 01:57:47;;;;;;;0.30;0.30;;;;;;;8.92;71.94;97173.66;5040753;28;20242;-53
2022/03/14 02:00:16;;;;;;;0.20;0.20;;;;;;;8.95;72.10;97182.19;5041489;28;20881;-53
2022/03/14 02:02:47;;;;;;;0.40;0.27;;;;;;;8.80;73.08;97175.47;5041796;28;20821;-54
2022/03/14 02:05:15;;;;;;;0.27;0.27;;;;;;;8.76;72.43;97173.16;5041672;28;20265;-54
2022/03/14 02:07:43;;;;;;;0.33;0.30;;;;;;;8.67;73.18;97181.81;5041530;28;20210;-54
2022/03/14 02:10:10;;;;;;;0.27;0.27;;;;;;;8.58;74.03;97185.97;5041706;28;20210;-54
2022/03/14 02:12:37;;;;;;;0.37;0.37;;;;;;;8.69;73.73;97179.88;5041972;28;21300;-53
2022/03/14 02:15:04;;;;;;;0.97;0.20;;;;;;;8.60;74.17;97189.34;5042052;28;20276;-54
2022/03/14 02:17:31;;;;;;;0.20;0.20;;;;;;;8.63;74.55;97183.84;5042601;28;20207;-54
2022/03/14 02:20:03;;;;;;;0.60;0.43;;;;;;;8.52;74.40;97183.81;5042280;28;20262;-54
2022/03/14 02:22:30;;;;;;;0.40;0.40;;;;;;;8.57;75.05;97199.28;5042208;28;20569;-52
2022/03/14 02:24:56;;;;;;;0.27;0.27;;;;;;;8.45;75.36;97195.78;5041586;28;20226;-54
2022/03/14 02:27:24;;;;;;;0.30;0.30;;;;;;;8.48;74.98;97190.28;5043531;28;20224;-53
2022/03/14 02:29:51;;;;;;;0.83;0.40;;;;;;;8.42;75.37;97190.75;5044580;28;20200;-54
2022/03/14 02:32:17;;;;;;;0.60;0.40;;;;;;;8.55;74.13;97186.22;5045459;28;20217;-53
2022/03/14 02:34:44;;;;;;;0.50;0.40;;;;;;;8.43;74.81;97198.50;5045215;28;20195;-54
2022/03/14 02:37:12;;;;;;;0.30;0.30;;;;;;;8.36;75.42;97197.31;5042502;28;20813;-55
2022/03/14 02:39:39;;;;;;;0.23;0.23;;;;;;;8.38;75.12;97205.09;5041781;28;20207;-55
2022/03/14 02:42:06;;;;;;;0.30;0.30;;;;;;;8.40;75.19;97208.44;5041744;28;20217;-53
2022/03/14 02:44:34;;;;;;;0.23;0.23;;;;;;;8.40;74.70;97213.72;5041985;28;20575;-53
2022/03/14 02:47:04;;;;;;;0.20;0.20;;;;;;;8.39;74.06;97214.69;5040988;28;20251;-55
2022/03/14 02:49:33;;;;;;;0.30;0.30;;;;;;;8.43;73.59;97213.53;5041852;28;20199;-54
2022/03/14 02:51:59;;;;;;;0.30;0.30;;;;;;;8.37;73.90;97220.06;5041757;28;20830;-55
2022/03/14 02:54:27;;;;;;;0.20;0.20;;;;;;;8.34;73.44;97215.03;5041365;28;20211;-54
2022/03/14 02:56:54;;;;;;;0.20;0.20;;;;;;;8.38;73.64;97226.19;5041011;28;20207;-54
2022/03/14 02:59:21;;;;;;;0.10;0.10;;;;;;;8.25;73.48;97220.13;5041245;28;20223;-54
2022/03/14 03:01:51;;;;;;;0.30;0.10;;;;;;;8.21;73.69;97237.13;5041460;28;20203;-55
2022/03/14 03:04:18;;;;;;;0.10;0.10;;;;;;;8.21;73.11;97231.84;5041929;28;20257;-55
2022/03/14 03:06:45;;;;;;;0.10;0.10;;;;;;;8.18;73.75;97234.72;5046431;28;20222;-53
2022/03/14 03:09:13;;;;;;;0.20;0.20;;;;;;;8.19;73.16;97253.03;5067219;28;20227;-54
2022/03/14 03:11:41;;;;;;;0.30;0.30;;;;;;;8.16;73.14;97252.41;5062968;28;20204;-54
2022/03/14 03:14:08;;;;;;;0.10;0.10;;;;;;;8.13;73.41;97260.53;5059312;28;20207;-54
2022/03/14 03:16:34;;;;;;;0.10;0.10;;;;;;;8.00;72.64;97269.38;5048803;28;20204;-53
2022/03/14 03:19:01;;;;;;;0.40;0.30;;;;;;;8.04;73.35;97269.13;5047845;28;20218;-55
2022/03/14 03:21:28;;;;;;;0.00;0.00;;;;;;;8.13;73.00;97284.25;5041608;28;20220;-54
2022/03/14 03:23:55;;;;;;;0.10;0.10;;;;;;;8.17;71.78;97289.19;5041561;28;20225;-55
2022/03/14 03:26:23;;;;;;;0.50;0.50;;;;;;;8.18;71.64;97304.06;5041630;28;20223;-54
2022/03/14 03:28:51;;;;;;;0.20;0.20;;;;;;;8.13;71.75;97306.19;5046532;28;20303;-54
2022/03/14 03:31:19;;;;;;;0.10;0.10;;;;;;;8.19;72.08;97318.06;5046878;28;20644;-54
2022/03/14 03:33:46;;;;;;;0.10;0.10;;;;;;;8.11;73.00;97323.06;5055595;28;20602;-56
2022/03/14 03:36:12;;;;;;;0.10;0.10;;;;;;;7.98;73.91;97323.94;5060589;28;20227;-54
2022/03/14 03:38:39;;;;;;;0.10;0.10;;;;;;;7.95;74.32;97339.97;5064186;28;20251;-54
2022/03/14 03:41:06;;;;;;;0.10;0.10;;;;;;;7.94;74.00;97338.25;5052589;28;20204;-55
2022/03/14 03:43:33;;;;;;;0.10;0.10;;;;;;;7.74;74.71;97332.75;5045325;28;20211;-55
2022/03/14 03:46:01;;;;;;;0.10;0.10;;;;;;;7.84;74.91;97347.78;5044773;28;20211;-54
2022/03/14 03:48:27;;;;;;;0.20;0.10;;;;;;;7.92;74.70;97352.50;5045266;28;20211;-55
2022/03/14 03:50:54;;;;;;;0.10;0.10;;;;;;;7.91;74.08;97359.56;5044220;28;20196;-54
2022/03/14 03:53:21;;;;;;;0.10;0.10;;;;;;;7.89;74.01;97358.84;5044702;28;20646;-55
2022/03/14 03:55:48;;;;;;;0.13;0.13;;;;;;;7.90;74.12;97363.13;5044566;28;20211;-55
2022/03/14 03:58:16;;;;;;;0.87;0.30;;;;;;;7.91;74.38;97372.72;5047067;28;20207;-54
2022/03/14 04:00:42;;;;;;;0.20;0.20;;;;;;;7.92;74.58;97371.78;5045095;28;20238;-54
2022/03/14 04:03:10;;;;;;;0.20;0.20;;;;;;;7.80;74.97;97367.38;5044498;28;20218;-54
2022/03/14 04:05:39;;;;;;;0.60;0.20;;;;;;;7.71;75.36;97360.13;5044573;28;20203;-53
2022/03/14 04:08:10;;;;;;;0.10;0.10;;;;;;;7.70;76.79;97366.34;5044406;28;20543;-53
2022/03/14 04:10:36;;;;;;;0.20;0.20;;;;;;;7.74;76.36;97365.19;5044949;28;20191;-53
2022/03/14 04:13:06;;;;;;;0.20;0.20;;;;;;;7.72;75.86;97368.88;5044696;28;20213;-53
2022/03/14 04:15:37;;;;;;;0.30;0.30;;;;;;;7.69;75.80;97369.91;5044634;28;20556;-55
2022/03/14 04:18:04;;;;;;;0.20;0.20;;;;;;;7.55;76.84;97377.94;5043773;28;20536;-53
2022/03/14 04:20:32;;;;;;;0.10;0.10;;;;;;;7.52;76.89;97378.16;5044565;28;20214;-54
2022/03/14 04:22:58;;;;;;;0.53;0.20;;;;;;;7.46;76.41;97384.69;5043467;28;20203;-54
2022/03/14 04:25:25;;;;;;;0.20;0.20;;;;;;;7.44;77.40;97383.09;5043565;28;20214;-53
2022/03/14 04:27:51;;;;;;;0.37;0.30;;;;;;;7.48;76.37;97395.94;5043436;28;20266;-53
2022/03/14 04:30:18;;;;;;;0.20;0.20;;;;;;;7.60;75.90;97396.03;5043041;28;20204;-54
2022/03/14 04:32:45;;;;;;;0.17;0.17;;;;;;;7.45;76.59;97396.16;5043630;28;20207;-53
2022/03/14 04:35:13;;;;;;;1.17;0.13;;;;;;;7.47;76.83;97391.63;5044964;28;20235;-54
2022/03/14 04:37:41;;;;;;;0.20;0.20;;;;;;;7.46;77.25;97394.38;5042929;28;20200;-54
2022/03/14 04:40:11;;;;;;;0.20;0.20;;;;;;;7.46;76.60;97394.38;5043054;28;20204;-54
2022/03/14 04:42:39;;;;;;;0.40;0.40;;;;;;;7.50;76.48;97387.97;5043090;28;20212;-54
2022/03/14 04:45:05;;;;;;;0.40;0.30;;;;;;;7.29;77.21;97385.00;5043682;28;20200;-53
2022/03/14 04:47:32;;;;;;;3.40;3.10;;;;;;;7.36;77.28;97399.44;5043032;28;20219;-54
2022/03/14 04:49:59;;;;;;;0.73;0.73;;;;;;;7.31;76.76;97398.03;5043058;28;20214;-53
2022/03/14 04:52:28;;;;;;;0.30;0.30;;;;;;;7.38;74.91;97399.31;5043112;28;20199;-53
2022/03/14 04:54:56;;;;;;;0.20;0.20;;;;;;;7.26;75.78;97413.31;5043761;28;20299;-54
2022/03/14 04:57:23;;;;;;;0.27;0.27;;;;;;;7.11;76.99;97414.34;5042834;28;20282;-53
2022/03/14 04:59:49;;;;;;;0.43;0.30;;;;;;;7.07;76.20;97418.97;5043422;28;20297;-55
2022/03/14 05:02:20;;;;;;;0.10;0.10;;;;;;;7.13;75.60;97422.97;5043811;28;20195;-54
2022/03/14 05:04:47;;;;;;;0.30;0.30;;;;;;;7.12;76.18;97423.94;5043820;28;20196;-53
2022/03/14 05:07:14;;;;;;;0.30;0.30;;;;;;;7.13;75.59;97433.47;5042959;28;20223;-54
2022/03/14 05:09:40;;;;;;;0.20;0.20;;;;;;;7.11;75.91;97430.13;5043214;28;20222;-55
2022/03/14 05:12:12;;;;;;;0.23;0.23;;;;;;;7.16;75.32;97436.75;5043521;28;20199;-54
2022/03/14 05:14:40;;;;;;;0.10;0.10;;;;;;;7.08;75.91;97436.44;5061874;28;20186;-54
2022/03/14 05:17:06;;;;;;;0.10;0.10;;;;;;;7.09;75.81;97432.84;5065619;28;20190;-54
2022/03/14 05:19:33;;;;;;;0.30;0.30;;;;;;;7.07;76.02;97439.16;5058163;28;20210;-54
2022/03/14 05:21:59;;;;;;;0.30;0.30;;;;;;;7.00;75.69;97439.56;5045177;28;20211;-54
2022/03/14 05:24:26;;;;;;;0.20;0.20;;;;;;;6.96;76.30;97443.34;5050488;28;20207;-53
2022/03/14 05:26:53;;;;;;;0.20;0.20;;;;;;;6.92;76.30;97446.28;5049561;28;20230;-54
2022/03/14 05:29:22;;;;;;;0.30;0.30;;;;;;;6.91;76.48;97450.69;5047778;28;20203;-54
2022/03/14 05:31:49;;;;;;;0.40;0.40;;;;;;;6.89;76.79;97457.84;5057081;28;20226;-54
2022/03/14 05:34:16;;;;;;;0.57;0.47;;;;;;;6.87;76.90;97467.59;5066293;28;20223;-55
2022/03/14 05:36:43;;;;;;;0.30;0.30;;;;;;;6.81;76.85;97475.88;5061834;28;20231;-54
2022/03/14 05:39:10;;;;;;;0.37;0.37;;;;;;;6.74;76.93;97479.00;5054414;28;20275;-53
2022/03/14 05:41:36;;;;;;;0.30;0.30;;;;;;;6.62;77.33;97485.94;5049660;28;20199;-53
2022/03/14 05:44:04;;;;;;;0.50;0.40;;;;;;;6.50;78.10;97489.31;5049222;28;20208;-53
2022/03/14 05:46:32;;;;;;;0.40;0.40;;;;;;;6.37;78.39;97488.41;5048546;28;20238;-56
2022/03/14 05:48:59;;;;;;;0.50;0.50;;;;;;;6.29;79.33;97498.56;5047304;28;20203;-54
2022/03/14 05:51:25;;;;;;;0.30;0.30;;;;;;;6.29;79.36;97499.41;5045672;28;20199;-55
2022/03/14 05:53:52;;;;;;;0.87;0.20;;;;;;;6.28;80.06;97507.38;5044165;28;20235;-55
2022/03/14 05:56:19;;;;;;;0.20;0.20;;;;;;;6.33;79.50;97505.31;5046230;28;20203;-53
2022/03/14 05:58:47;;;;;;;0.30;0.30;;;;;;;6.26;79.97;97507.47;5043291;28;20211;-56
2022/03/14 06:01:15;;;;;;;0.43;0.43;;;;;;;6.14;78.98;97516.09;5046253;28;20235;-55
2022/03/14 06:03:42;;;;;;;0.37;0.37;;;;;;;6.09;79.72;97514.72;5045290;28;20261;-54
2022/03/14 06:06:09;;;;;;;0.47;0.47;;;;;;;6.05;79.86;97516.69;5042580;28;20194;-53
2022/03/14 06:08:37;;;;;;;0.40;0.40;;;;;;;6.05;80.30;97513.22;5042246;28;20543;-54
2022/03/14 06:11:05;;;;;;;0.83;0.83;;;;;;;6.26;78.55;97517.13;5043133;28;20222;-54
2022/03/14 06:13:32;;;;;;;0.90;0.90;;;;;;;6.33;78.87;97526.31;5041320;28;20208;-55
2022/03/14 06:15:58;;;;;;;0.40;0.40;;;;;;;6.23;79.79;97527.84;5042485;28;20211;-54
2022/03/14 06:18:25;;;;;;;0.50;0.50;;;;;;;6.21;79.69;97529.69;5043871;28;20199;-54
2022/03/14 06:20:53;;;;;;;0.53;0.53;;;;;;;6.22;79.90;97536.66;5046477;28;20212;-55
2022/03/14 06:23:22;;;;;;;0.40;0.40;;;;;;;6.29;79.80;97535.31;5049284;28;20212;-54
2022/03/14 06:25:49;;;;;;;0.60;0.60;;;;;;;7.23;77.83;97539.78;5043888;28;20203;-53
2022/03/14 06:28:15;;;;;;;0.87;0.50;;;;;;;8.61;70.70;97533.75;5040560;28;20219;-53
2022/03/14 06:30:42;;;;;;;2.53;0.40;;;;;;;9.73;66.23;97541.28;5043339;28;20209;-55
2022/03/14 06:33:10;;;;;;;0.40;0.40;;;;;;;10.69;61.37;97526.72;5041892;28;20204;-54
2022/03/14 06:35:37;;;;;;;1.30;0.40;;;;;;;10.77;61.35;97529.56;5041921;28;20218;-55
2022/03/14 06:38:05;;;;;;;0.40;0.40;;;;;;;10.71;60.14;97535.38;5042500;28;20207;-54
2022/03/14 06:40:32;;;;;;;0.40;0.40;;;;;;;10.34;62.16;97531.31;5041672;28;20208;-53
2022/03/14 06:42:59;;;;;;;1.80;0.40;;;;;;;10.46;62.01;97538.25;5042795;28;20663;-54
2022/03/14 06:45:26;;;;;;;0.40;0.40;;;;;;;10.49;62.48;97538.03;5041450;28;20213;-54
2022/03/14 06:47:54;;;;;;;0.40;0.40;;;;;;;11.09;60.49;97536.75;5041996;28;21299;-55
2022/03/14 06:50:21;;;;;;;0.37;0.37;;;;;;;11.92;57.79;97545.69;5040914;28;20286;-55
2022/03/14 06:52:48;;;;;;;0.23;0.23;;;;;;;13.31;53.95;97548.53;5042761;28;20210;-56
2022/03/14 06:55:16;;;;;;;0.30;0.25;;;;;;;13.56;52.31;97542.69;5054152;28;20230;-55
2022/03/14 06:57:43;;;;;;;2.95;2.75;;;;;;;13.87;50.39;97541.56;5062307;28;20221;-54
2022/03/14 07:00:10;;;;;;;0.77;0.52;;;;;;;13.12;51.20;97548.50;5065266;28;20230;-58
2022/03/14 07:02:39;;;;;;;0.40;0.40;;;;;;;13.27;51.40;97553.28;5044683;28;20219;-55
2022/03/14 07:05:07;;;;;;;0.40;0.40;;;;;;;12.62;52.29;97545.78;5046191;28;20215;-55
2022/03/14 07:07:33;;;;;;;0.28;0.28;;;;;;;12.05;54.14;97550.78;5048183;28;20231;-54
2022/03/14 07:10:00;;;;;;;1.40;0.20;;;;;;;11.55;55.92;97558.47;5048579;28;20215;-54
2022/03/14 07:12:28;;;;;;;0.20;0.20;;;;;;;11.14;57.03;97563.69;5047639;28;20561;-56
2022/03/14 07:14:54;;;;;;;0.20;0.20;;;;;;;11.05;57.27;97561.78;5048231;28;20512;-55
2022/03/14 07:17:21;;;;;;;0.30;0.30;;;;;;;10.83;58.02;97566.16;5055655;28;20211;-56
2022/03/14 07:19:48;;;;;;;0.40;0.30;;;;;;;10.60;59.45;97577.69;5057769;28;20216;-55
2022/03/14 07:22:19;;;;;;;0.30;0.30;;;;;;;10.43;60.68;97583.47;5045567;28;20580;-53
2022/03/14 07:24:45;;;;;;;0.20;0.20;;;;;;;10.33;61.37;97580.69;5046941;28;20200;-54
2022/03/14 07:27:13;;;;;;;0.30;0.30;;;;;;;10.15;61.58;97592.69;5046108;28;20222;-52
2022/03/14 07:29:41;;;;;;;0.40;0.40;;;;;;;10.02;62.05;97590.09;5045384;28;20199;-55
2022/03/14 07:32:08;;;;;;;0.27;0.27;;;;;;;9.90;63.03;97590.19;5045718;28;20207;-52
2022/03/14 07:34:36;;;;;;;0.40;0.30;;;;;;;9.87;63.07;97585.13;5045191;28;20200;-54
2022/03/14 07:37:05;;;;;;;0.40;0.40;;;;;;;9.90;62.13;97596.31;5045171;28;20281;-54
2022/03/14 07:39:31;;;;;;;0.40;0.40;;;;;;;9.87;62.58;97601.00;5045431;28;20315;-54
2022/03/14 07:41:58;;;;;;;0.40;0.40;;;;;;;9.86;63.40;97605.41;5046236;28;20214;-54
2022/03/14 07:44:25;;;;;;;0.30;0.30;;;;;;;9.78;62.94;97614.88;5046478;28;20449;-53
2022/03/14 07:46:53;;;;;;;0.33;0.33;;;;;;;9.75;62.61;97620.38;5046134;28;20203;-54
2022/03/14 07:49:20;;;;;;;0.40;0.40;;;;;;;9.63;64.75;97616.88;5045567;28;20200;-54
2022/03/14 07:51:47;;;;;;;0.60;0.60;;;;;;;9.74;63.73;97618.72;5046440;28;20230;-54
2022/03/14 07:54:13;;;;;;;0.83;0.47;;;;;;;9.73;64.07;97625.78;5050479;28;20632;-54
2022/03/14 07:56:42;;;;;;;1.13;0.40;;;;;;;9.76;63.58;97630.84;5060663;28;20204;-54
2022/03/14 07:59:08;;;;;;;0.50;0.50;;;;;;;9.76;63.97;97630.84;5064611;28;20827;-55
2022/03/14 08:01:35;;;;;;;0.57;0.30;;;;;;;9.75;63.76;97618.59;5063641;28;20242;-52
2022/03/14 08:04:03;;;;;;;0.40;0.40;;;;;;;9.73;63.98;97619.66;5046904;28;20211;-54
2022/03/14 08:06:34;;;;;;;0.50;0.50;;;;;;;9.79;64.11;97622.69;5047318;28;20199;-54
2022/03/14 08:09:02;;;;;;;0.50;0.40;;;;;;;9.87;63.88;97630.91;5050323;28;20207;-53
2022/03/14 08:11:30;;;;;;;0.40;0.40;;;;;;;9.89;63.25;97630.75;5044035;28;20207;-54
2022/03/14 08:13:57;;;;;;;0.50;0.50;;;;;;;9.85;63.19;97630.16;5043932;28;20204;-54
2022/03/14 08:16:25;;;;;;;0.40;0.40;;;;;;;9.86;63.00;97626.56;5045003;28;20214;-53
2022/03/14 08:18:54;;;;;;;0.40;0.40;;;;;;;9.94;62.64;97621.56;5043822;28;20644;-54
2022/03/14 08:21:24;;;;;;;0.50;0.50;;;;;;;10.02;62.52;97626.25;5044211;28;20486;-54
2022/03/14 08:23:51;;;;;;;0.40;0.40;;;;;;;10.02;62.84;97632.38;5044558;28;20195;-54
2022/03/14 08:26:21;;;;;;;0.40;0.40;;;;;;;10.06;62.45;97642.72;5044101;28;20698;-52
2022/03/14 08:28:48;;;;;;;0.47;0.40;;;;;;;10.15;62.83;97644.69;5044258;28;20337;-52
2022/03/14 08:31:16;;;;;;;2.20;1.00;;;;;;;10.15;61.84;97644.69;5045307;28;20207;-53
2022/03/14 08:33:44;;;;;;;0.30;0.30;;;;;;;10.31;60.85;97642.56;5044645;28;20266;-54
2022/03/14 08:36:11;;;;;;;0.87;0.63;;;;;;;10.47;60.29;97651.03;5044304;28;20286;-53
2022/03/14 08:38:40;;;;;;;0.50;0.50;;;;;;;10.47;59.46;97654.53;5044551;28;20196;-53
2022/03/14 08:41:07;;;;;;;0.70;0.60;;;;;;;10.57;60.45;97651.16;5043905;28;20207;-53
2022/03/14 08:43:33;;;;;;;0.40;0.40;;;;;;;10.60;59.50;97654.41;5043854;28;20512;-53
2022/03/14 08:46:01;;;;;;;0.47;0.47;;;;;;;10.57;59.40;97659.94;5043584;28;20648;-54
2022/03/14 08:48:28;;;;;;;0.60;0.60;;;;;;;10.66;59.17;97653.09;5043988;28;20326;-55
2022/03/14 08:50:54;;;;;;;2.73;0.67;;;;;;;10.68;59.10;97673.19;5056602;28;20204;-54
2022/03/14 08:53:22;;;;;;;0.70;0.70;;;;;;;10.85;59.14;97674.50;5059381;28;20198;-54
2022/03/14 08:55:50;;;;;;;0.50;0.50;;;;;;;10.94;58.64;97673.81;5054207;28;20211;-52
2022/03/14 08:58:16;;;;;;;0.50;0.50;;;;;;;10.84;58.12;97663.06;5044638;28;20199;-53
2022/03/14 09:00:43;;;;;;;0.73;0.60;;;;;;;10.91;59.63;97680.16;5042984;28;20713;-53
2022/03/14 09:03:10;;;;;;;1.27;0.60;;;;;;;10.87;59.09;97673.44;5043311;28;20203;-55
2022/03/14 09:05:36;;;;;;;1.03;0.40;;;;;;;11.07;58.82;97678.97;5043509;28;20576;-53
2022/03/14 09:08:03;;;;;;;1.00;0.90;;;;;;;11.11;58.29;97675.97;5044196;28;20597;-54
2022/03/14 09:10:31;;;;;;;0.80;0.50;;;;;;;11.36;58.39;97670.41;5043860;28;20200;-53
2022/03/14 09:12:59;;;;;;;0.70;0.70;;;;;;;11.53;57.40;97669.03;5043235;28;20309;-54
2022/03/14 09:15:25;;;;;;;0.43;0.43;;;;;;;11.79;56.25;97673.09;5043936;28;20710;-52
2022/03/14 09:17:54;;;;;;;0.47;0.47;;;;;;;11.98;54.86;97667.13;5042985;28;20207;-55
2022/03/14 09:20:21;;;;;;;0.70;0.70;;;;;;;12.18;54.63;97668.97;5044607;28;20291;-56
2022/03/14 09:22:48;;;;;;;1.13;1.00;;;;;;;12.67;53.92;97668.31;5047613;28;20219;-55
2022/03/14 09:25:15;;;;;;;0.93;0.93;;;;;;;13.16;52.19;97656.13;5051291;28;20206;-54
2022/03/14 09:27:42;;;;;;;0.83;0.70;;;;;;;13.30;51.19;97663.75;5043292;28;20227;-56
2022/03/14 09:30:11;;;;;;;0.60;0.60;;;;;;;13.44;51.55;97666.00;5042883;28;20204;-54
2022/03/14 09:32:38;;;;;;;3.60;0.60;;;;;;;13.87;50.84;97671.84;5042941;28;20545;-55
2022/03/14 09:35:06;;;;;;;0.83;0.50;;;;;;;14.20;49.48;97681.25;5043431;28;20624;-54
2022/03/14 09:37:36;;;;;;;1.07;0.60;;;;;;;14.59;48.57;97682.09;5043671;28;20237;-54
2022/03/14 09:40:05;;;;;;;0.60;0.60;;;;;;;14.87;47.80;97686.50;5043309;28;20646;-54
2022/03/14 09:42:31;;;;;;;0.40;0.40;;;;;;;15.33;47.81;97679.47;5042442;28;20348;-54
2022/03/14 09:44:59;;;;;;;0.80;0.50;;;;;;;15.61;45.85;97681.19;5043403;28;20314;-54
2022/03/14 09:47:27;;;;;;;1.50;0.70;;;;;;;16.20;45.05;97683.31;5042743;28;20263;-55
2022/03/14 09:49:55;;;;;;;0.73;0.50;;;;;;;15.97;43.73;97681.25;5043373;28;20210;-55
2022/03/14 09:52:23;;;;;;;0.53;0.53;;;;;;;16.15;43.43;97680.25;5042488;28;20210;-55
2022/03/14 09:54:50;;;;;;;0.38;0.38;;;;;;;17.11;43.40;97681.19;5043135;28;20515;-55
2022/03/14 09:57:17;;;;;;;0.68;0.60;;;;;;;17.51;41.47;97686.72;5042584;28;20207;-55
2022/03/14 09:59:44;;;;;;;0.52;0.40;;;;;;;17.10;41.80;97682.19;5042422;28;20242;-55
2022/03/14 10:02:11;;;;;;;1.90;0.55;;;;;;;16.91;43.74;97688.56;5042374;28;20223;-53
2022/03/14 10:04:40;;;;;;;1.13;0.60;;;;;;;16.21;43.16;97689.47;5042364;28;20211;-54
2022/03/14 10:07:08;;;;;;;0.85;0.85;;;;;;;16.70;43.96;97686.25;5046168;28;20211;-54
2022/03/14 10:09:35;;;;;;;0.85;0.68;;;;;;;16.76;43.47;97693.63;5047574;28;20227;-54
2022/03/14 10:12:02;;;;;;;1.15;0.60;;;;;;;16.54;42.95;97685.28;5044511;28;20229;-55
2022/03/14 10:14:29;;;;;;;1.08;0.80;;;;;;;16.55;42.96;97687.78;5042207;28;20207;-55
2022/03/14 10:16:56;;;;;;;0.95;0.95;;;;;;;16.47;42.54;97684.22;5041790;28;20208;-55
2022/03/14 10:19:30;;;;;;;1.50;0.95;;;;;;;16.35;42.30;97694.28;5055859;28;20211;-54
2022/03/14 10:22:12;;;;;;;3.15;1.10;;;;;;;15.88;44.30;97689.16;5059555;28;20195;-55
2022/03/14 10:24:39;;;;;;;13.25;2.47;;;;;;;16.03;44.50;97700.16;5056572;28;20309;-53
2022/03/14 10:27:06;;;;;;;0.98;0.85;;;;;;;16.62;44.19;97677.34;5047240;28;20215;-55
2022/03/14 10:29:32;;;;;;;13.07;2.45;;;;;;;16.55;42.79;97686.94;5041573;28;20230;-54
2022/03/14 10:32:01;;;;;;;1.42;0.82;;;;;;;16.54;42.14;97678.09;5043124;28;20207;-56
2022/03/14 10:34:28;;;;;;;3.20;1.13;;;;;;;17.20;42.28;97677.56;5044939;28;20292;-54
2022/03/14 10:36:57;;;;;;;2.03;0.90;;;;;;;17.07;42.17;97677.16;5051546;28;20736;-54
2022/03/14 10:39:27;;;;;;;1.05;0.70;;;;;;;17.36;41.54;97678.47;5045221;28;20234;-55
2022/03/14 10:42:05;;;;;;;1.20;1.08;;;;;;;16.78;42.03;97680.13;5042092;28;20207;-54
2022/03/14 10:44:32;;;;;;;9.45;2.10;;;;;;;17.09;42.03;97676.00;5044074;28;20207;-54
2022/03/14 10:46:59;;;;;;;0.73;0.70;;;;;;;17.09;40.66;97677.81;5051367;28;20207;-58
2022/03/14 10:49:30;;;;;;;1.95;1.00;;;;;;;16.74;41.94;97676.94;5042266;28;20261;-55
2022/03/14 10:51:59;;;;;;;1.15;1.05;;;;;;;16.29;42.44;97692.22;5041737;28;20504;-55
2022/03/14 10:54:27;;;;;;;0.80;0.80;;;;;;;16.48;42.81;97680.53;5042080;28;20307;-53
2022/03/14 10:57:01;;;;;;;0.95;0.95;;;;;;;16.28;43.74;97675.38;5041526;28;20207;-55
2022/03/14 10:59:35;;;;;;;1.75;1.05;;;;;;;16.38;42.97;97680.63;5041896;28;20199;-53
2022/03/14 11:02:03;;;;;;;0.98;0.98;;;;;;;16.57;41.88;97668.97;5041845;28;20632;-55
2022/03/14 11:04:29;;;;;;;0.80;0.75;;;;;;;17.12;41.66;97672.16;5042021;28;20226;-53
2022/03/14 11:07:00;;;;;;;1.33;1.17;;;;;;;16.87;40.76;97671.16;5043093;28;20203;-56
2022/03/14 11:09:39;;;;;;;0.80;0.80;;;;;;;17.35;40.88;97675.97;5041594;28;20271;-54
2022/03/14 11:12:07;;;;;;;0.90;0.90;;;;;;;17.70;39.82;97675.81;5041980;28;20210;-54
2022/03/14 11:14:33;;;;;;;1.58;1.10;;;;;;;17.81;41.15;97680.03;5041153;28;20204;-55
2022/03/14 11:17:17;;;;;;;1.60;0.82;;;;;;;17.77;38.47;97676.84;5041494;28;20604;-56
2022/03/14 11:19:43;;;;;;;1.30;1.20;;;;;;;17.53;39.85;97679.41;5041884;28;20199;-53
2022/03/14 11:22:13;;;;;;;2.22;1.13;;;;;;;18.20;39.22;97680.28;5041740;28;20215;-56
2022/03/14 11:24:43;;;;;;;1.30;1.20;;;;;;;18.42;38.71;97672.41;5041577;28;20223;-54
2022/03/14 11:27:28;;;;;;;0.95;0.95;;;;;;;18.60;38.38;97680.31;5042302;28;20197;-54
2022/03/14 11:29:57;;;;;;;1.10;1.10;;;;;;;19.16;38.32;97670.53;5041225;28;20215;-54
2022/03/14 11:32:26;;;;;;;0.90;0.90;;;;;;;19.67;36.80;97667.34;5041706;28;20200;-53
2022/03/14 11:34:55;;;;;;;1.23;1.23;;;;;;;18.87;36.53;97666.56;5040826;28;20215;-54
2022/03/14 11:37:24;;;;;;;1.50;1.40;;;;;;;19.18;37.22;97663.16;5041590;28;20355;-55
2022/03/14 11:39:54;;;;;;;2.67;1.20;;;;;;;19.47;36.50;97660.75;5041482;28;20230;-54